KPSN

Palestine Municipal Airport

Palestine, Texas, USA
METAR KPSN 231055Z AUTO 00000KT 10SM CLR M01/M02 A3020 RMK AO2 T10141028
Observed Flight Rules
Jan-23 @ 10:55 UTC (an hour ago) Visual Flight Rules
Wind Visibility Clouds
Calm 10 miles
  • Clear skies
Temperatures Readings
Current -1°C / 30°F
Dewpoint -3°C / 27°F
Humidity 86%
Altimeter 30.2" Hg
Pressure 1023 hPa
Elevation 129
METAR KPSN 231055Z AUTO 00000KT 10SM CLR M01/M02 A3020 RMK AO2 T10141028
Observed Flight Rules
Jan-23 @ 10:55 UTC
(an hour ago)
VFR
Wind Visibility
Calm 10 miles
Clouds
  • Clear skies
Temperature Dewpoint
-1°C / 30°F -3°C / 27°F
Humidity Altimeter Pressure
86% 30.2" Hg 1023 hPa